createdAt,value
2022-09-28T00:01:17.945Z,20.00
2022-09-28T00:03:46.906Z,18.15
2022-09-28T00:06:16.331Z,19.40
2022-09-28T00:08:43.331Z,16.85
2022-09-28T00:11:14.062Z,15.50
2022-09-28T00:13:43.190Z,14.30
2022-09-28T00:16:17.101Z,14.90
2022-09-28T00:18:45.904Z,13.50
2022-09-28T00:21:19.015Z,14.40
2022-09-28T00:24:04.898Z,12.52
2022-09-28T00:26:33.833Z,10.48
2022-09-28T00:29:02.595Z,10.82
2022-09-28T00:31:32.998Z,8.88
2022-09-28T00:34:01.622Z,10.00
2022-09-28T00:36:30.566Z,9.70
2022-09-28T00:38:58.484Z,8.25
2022-09-28T00:41:28.175Z,9.43
2022-09-28T00:44:26.736Z,8.40
2022-09-28T00:47:22.925Z,5.50
2022-09-28T00:50:12.314Z,5.50
2022-09-28T00:53:00.588Z,6.70
2022-09-28T00:55:36.821Z,4.82
2022-09-28T00:58:08.316Z,5.20
2022-09-28T01:00:35.599Z,4.50
2022-09-28T01:03:04.276Z,4.30
2022-09-28T01:05:31.128Z,4.18
2022-09-28T01:07:58.248Z,4.30
2022-09-28T01:10:25.630Z,4.43
2022-09-28T01:12:52.638Z,4.50
2022-09-28T01:15:22.178Z,5.03
2022-09-28T01:18:04.671Z,5.18
2022-09-28T01:20:43.730Z,6.20
2022-09-28T01:23:19.795Z,4.57
2022-09-28T01:25:55.690Z,5.75
2022-09-28T01:28:28.093Z,4.40
2022-09-28T01:31:09.507Z,5.40
2022-09-28T01:33:51.401Z,6.20
2022-09-28T01:36:44.159Z,5.00
2022-09-28T01:39:24.451Z,4.60
2022-09-28T01:41:54.100Z,5.28
2022-09-28T01:44:24.598Z,5.03
2022-09-28T01:46:53.724Z,4.20
2022-09-28T01:49:20.510Z,3.05
2022-09-28T01:52:23.594Z,3.42
2022-09-28T01:55:06.718Z,4.53
2022-09-28T01:57:44.954Z,3.50
2022-09-28T02:00:15.162Z,4.00
2022-09-28T02:02:49.951Z,3.60
2022-09-28T02:05:21.320Z,4.00
2022-09-28T02:08:03.643Z,3.35
2022-09-28T02:10:38.402Z,4.10
2022-09-28T02:13:12.143Z,4.15
2022-09-28T02:15:51.590Z,3.80
2022-09-28T02:18:18.665Z,4.00
2022-09-28T02:21:07.260Z,3.78
2022-09-28T02:23:37.708Z,3.30
2022-09-28T02:26:09.461Z,2.88
2022-09-28T02:28:36.467Z,5.05
2022-09-28T02:31:03.772Z,3.17
2022-09-28T02:33:39.126Z,4.20
2022-09-28T02:36:06.677Z,4.70
2022-09-28T02:38:33.766Z,5.10
2022-09-28T02:41:15.614Z,4.63
2022-09-28T02:43:45.420Z,5.03
2022-09-28T02:46:28.678Z,4.88
2022-09-28T02:49:22.290Z,6.07
2022-09-28T02:52:20.308Z,6.20
2022-09-28T02:54:59.210Z,5.40
2022-09-28T02:58:01.609Z,6.38
2022-09-28T03:00:31.370Z,4.72
2022-09-28T03:03:15.797Z,5.07
2022-09-28T03:06:14.684Z,5.20
2022-09-28T03:08:50.154Z,5.00
2022-09-28T03:11:34.192Z,5.32
2022-09-28T03:14:02.410Z,5.35
2022-09-28T03:16:32.263Z,5.28
2022-09-28T03:18:59.319Z,6.67
2022-09-28T03:21:26.282Z,6.72
2022-09-28T03:23:53.208Z,6.22
2022-09-28T03:26:20.203Z,7.05
2022-09-28T03:28:47.197Z,7.70
2022-09-28T03:31:14.244Z,7.70
2022-09-28T03:33:41.545Z,6.20
2022-09-28T03:36:09.888Z,7.35
2022-09-28T03:38:36.840Z,8.25
2022-09-28T03:41:03.951Z,8.65
2022-09-28T03:43:31.132Z,8.70
2022-09-28T03:46:00.495Z,9.38
2022-09-28T03:48:32.838Z,9.65
2022-09-28T03:51:03.171Z,9.57
2022-09-28T03:53:30.489Z,10.07
2022-09-28T03:56:03.753Z,8.90
2022-09-28T03:58:30.764Z,9.98
2022-09-28T04:01:03.334Z,10.68
2022-09-28T04:03:30.445Z,9.30
2022-09-28T04:05:57.724Z,11.73
2022-09-28T04:08:24.678Z,11.23
2022-09-28T04:10:51.840Z,10.85
2022-09-28T04:13:18.735Z,9.63
2022-09-28T04:15:53.526Z,9.27
2022-09-28T04:18:20.796Z,10.68
2022-09-28T04:20:48.511Z,12.13
2022-09-28T04:23:16.209Z,12.68
2022-09-28T04:25:47.492Z,13.63
2022-09-28T04:28:33.082Z,15.68
2022-09-28T04:31:00.008Z,13.93
2022-09-28T04:33:26.912Z,15.60
2022-09-28T04:35:54.304Z,17.20
2022-09-28T04:38:35.856Z,18.27
2022-09-28T04:41:08.239Z,17.33
2022-09-28T04:43:35.340Z,17.88
2022-09-28T04:46:03.868Z,19.90
2022-09-28T04:48:30.922Z,20.45
2022-09-28T04:51:00.242Z,17.98
2022-09-28T04:53:28.199Z,20.08
2022-09-28T04:56:15.917Z,19.70
2022-09-28T04:58:46.089Z,20.45
2022-09-28T05:01:18.572Z,21.67
2022-09-28T05:03:45.595Z,18.10
2022-09-28T05:06:16.222Z,28.48
2022-09-28T05:08:43.925Z,35.22
2022-09-28T05:11:12.617Z,25.95
2022-09-28T05:13:42.986Z,25.58
2022-09-28T05:16:10.699Z,36.03
2022-09-28T05:18:37.671Z,31.20
2022-09-28T05:21:09.341Z,26.50
2022-09-28T05:23:36.343Z,26.10
2022-09-28T05:26:03.454Z,27.50
2022-09-28T05:28:32.440Z,18.95
2022-09-28T05:31:00.936Z,20.15
2022-09-28T05:33:28.965Z,19.95
2022-09-28T05:36:00.800Z,22.23
2022-09-28T05:38:28.709Z,19.38
2022-09-28T05:40:56.242Z,18.63
2022-09-28T05:43:23.402Z,17.95
2022-09-28T05:45:55.084Z,23.75
2022-09-28T05:48:22.807Z,28.10
2022-09-28T05:50:53.200Z,22.85
2022-09-28T05:53:20.502Z,17.27
2022-09-28T05:55:47.777Z,17.60
2022-09-28T05:58:14.725Z,15.30
2022-09-28T06:00:41.987Z,17.60
2022-09-28T06:03:12.519Z,15.63
2022-09-28T06:05:40.441Z,16.15
2022-09-28T06:08:11.355Z,14.63
2022-09-28T06:13:06.829Z,17.55
2022-09-28T06:15:35.712Z,12.43
2022-09-28T06:18:08.242Z,13.75
2022-09-28T06:20:37.709Z,12.55
2022-09-28T06:23:05.057Z,14.48
2022-09-28T06:25:32.767Z,24.60
2022-09-28T06:28:04.443Z,23.25
2022-09-28T06:30:34.479Z,10.77
2022-09-28T06:33:02.654Z,13.60
2022-09-28T06:35:31.099Z,12.60
2022-09-28T06:38:01.538Z,10.38
2022-09-28T06:40:28.983Z,10.90
2022-09-28T06:43:10.691Z,10.30
2022-09-28T06:45:38.918Z,10.45
2022-09-28T06:48:06.727Z,8.55
2022-09-28T06:50:37.723Z,9.73
2022-09-28T06:53:07.148Z,10.77
2022-09-28T06:55:34.518Z,8.68
2022-09-28T06:58:05.180Z,9.18
2022-09-28T07:00:35.585Z,8.48
2022-09-28T07:03:04.359Z,10.88
2022-09-28T07:05:35.323Z,10.50
2022-09-28T07:08:02.863Z,10.68
2022-09-28T07:10:31.054Z,8.50
2022-09-28T07:13:02.918Z,9.52
2022-09-28T07:15:30.484Z,8.73
2022-09-28T07:18:03.550Z,10.63
2022-09-28T07:20:31.366Z,9.88
2022-09-28T07:23:13.207Z,9.00
2022-09-28T07:25:48.182Z,9.60
2022-09-28T07:28:15.833Z,10.70
2022-09-28T07:30:45.035Z,10.35
2022-09-28T07:33:14.807Z,9.25
2022-09-28T07:35:42.848Z,10.90
2022-09-28T07:38:10.888Z,9.00
2022-09-28T07:40:56.874Z,9.77
2022-09-28T07:43:24.029Z,10.93
2022-09-28T07:45:54.561Z,9.35
2022-09-28T07:48:22.672Z,9.25
2022-09-28T07:50:52.874Z,8.73
2022-09-28T07:53:21.160Z,11.52
2022-09-28T07:55:55.186Z,9.10
2022-09-28T07:58:22.911Z,9.82
2022-09-28T08:00:51.067Z,10.15
2022-09-28T08:03:19.853Z,9.80
2022-09-28T08:05:47.642Z,10.63
2022-09-28T08:08:15.663Z,11.77
2022-09-28T08:10:46.824Z,11.52
2022-09-28T08:13:15.475Z,11.63
2022-09-28T08:15:42.908Z,9.50
2022-09-28T08:18:10.802Z,9.80
2022-09-28T08:20:56.327Z,9.20
2022-09-28T08:23:23.956Z,8.55
2022-09-28T08:25:54.353Z,8.55
2022-09-28T08:28:22.999Z,8.95
2022-09-28T08:30:50.970Z,9.50
2022-09-28T08:33:21.520Z,9.18
2022-09-28T08:35:54.999Z,8.60
2022-09-28T08:38:21.998Z,7.35
2022-09-28T08:41:22.873Z,7.30
2022-09-28T08:44:12.487Z,7.25
2022-09-28T08:47:02.635Z,8.48
2022-09-28T08:49:37.239Z,8.87
2022-09-28T08:52:12.320Z,9.57
2022-09-28T08:54:56.636Z,8.98
2022-09-28T08:57:32.630Z,8.60
2022-09-28T09:00:02.287Z,8.38
2022-09-28T09:02:33.900Z,8.77
2022-09-28T09:05:05.440Z,8.60
2022-09-28T09:07:54.266Z,8.82
2022-09-28T09:10:48.655Z,8.35
2022-09-28T09:13:19.461Z,8.18
2022-09-28T09:18:45.057Z,7.53
2022-09-28T09:21:25.677Z,6.80
2022-09-28T09:23:57.743Z,6.72
2022-09-28T09:26:39.567Z,6.15
2022-09-28T09:29:40.612Z,7.00
2022-09-28T09:35:01.772Z,6.45
2022-09-28T09:38:08.179Z,5.50
2022-09-28T09:40:54.182Z,5.28
2022-09-28T09:43:59.219Z,5.30
2022-09-28T09:46:36.765Z,5.00
2022-09-28T09:49:20.870Z,4.72
2022-09-28T09:52:22.401Z,5.05
2022-09-28T09:55:19.661Z,4.25
2022-09-28T09:57:53.817Z,4.40
2022-09-28T10:00:20.820Z,3.67
2022-09-28T10:02:50.089Z,3.72
2022-09-28T10:05:28.008Z,4.38
2022-09-28T10:07:59.242Z,3.95
2022-09-28T10:10:39.328Z,3.70
2022-09-28T10:13:06.314Z,4.13
2022-09-28T10:15:35.787Z,4.00
2022-09-28T10:18:09.959Z,3.38
2022-09-28T10:20:43.250Z,3.35
2022-09-28T10:23:20.581Z,3.40
2022-09-28T10:25:50.534Z,3.60
2022-09-28T10:28:24.330Z,4.70
2022-09-28T10:30:51.453Z,3.28
2022-09-28T10:33:31.177Z,3.67
2022-09-28T10:36:02.688Z,4.38
2022-09-28T10:38:31.228Z,4.47
2022-09-28T10:41:17.519Z,2.75
2022-09-28T10:44:09.502Z,2.85
2022-09-28T10:46:39.061Z,2.92
2022-09-28T10:49:16.161Z,2.50
2022-09-28T10:51:49.980Z,2.40
2022-09-28T10:54:22.352Z,2.78
2022-09-28T10:56:50.732Z,2.30
2022-09-28T10:59:23.797Z,2.20
2022-09-28T11:01:56.454Z,2.03
2022-09-28T11:04:28.850Z,2.30
2022-09-28T11:09:49.262Z,2.58
2022-09-28T11:12:20.980Z,2.45
2022-09-28T11:14:53.017Z,2.22
2022-09-28T11:17:32.842Z,2.08
2022-09-28T11:20:27.758Z,2.13
2022-09-28T11:23:01.411Z,1.98
2022-09-28T11:25:29.890Z,2.25
2022-09-28T11:28:00.137Z,2.25
2022-09-28T11:30:34.037Z,1.98
2022-09-28T11:33:12.632Z,1.73
2022-09-28T11:36:11.089Z,2.00
2022-09-28T11:38:54.068Z,2.17
2022-09-28T11:41:48.962Z,3.42
2022-09-28T11:44:22.325Z,1.90
2022-09-28T11:47:13.860Z,2.40
2022-09-28T11:49:44.388Z,2.63
2022-09-28T11:52:19.668Z,2.22
2022-09-28T11:55:05.525Z,2.20
2022-09-28T11:57:38.932Z,2.15
2022-09-28T12:00:12.386Z,2.17
2022-09-28T12:02:50.026Z,2.22
2022-09-28T12:05:27.501Z,2.65
2022-09-28T12:07:59.395Z,2.83
2022-09-28T12:11:04.717Z,2.72
2022-09-28T12:13:54.489Z,1.60
2022-09-28T12:16:53.489Z,1.58
2022-09-28T12:19:40.185Z,3.20
2022-09-28T12:22:21.644Z,4.97
2022-09-28T12:24:52.983Z,6.43
2022-09-28T12:27:41.947Z,3.63
2022-09-28T12:30:17.270Z,2.05
2022-09-28T12:32:50.752Z,1.23
2022-09-28T12:35:32.773Z,1.40
2022-09-28T12:38:30.602Z,1.50
2022-09-28T12:41:06.885Z,1.52
2022-09-28T12:43:33.866Z,2.05
2022-09-28T12:46:12.680Z,2.30
2022-09-28T12:49:51.523Z,2.70
2022-09-28T12:51:57.959Z,2.58
2022-09-28T12:54:39.108Z,2.30
2022-09-28T12:57:34.082Z,2.55
2022-09-28T13:00:07.499Z,2.60
2022-09-28T13:02:52.935Z,2.58
2022-09-28T13:05:45.974Z,2.55
2022-09-28T13:08:23.952Z,2.40
2022-09-28T13:11:08.978Z,2.92
2022-09-28T13:13:54.631Z,2.97
2022-09-28T13:16:24.753Z,2.92
2022-09-28T13:18:58.591Z,3.05
2022-09-28T13:21:41.434Z,2.40
2022-09-28T13:24:31.499Z,2.28
2022-09-28T13:27:11.035Z,2.47
2022-09-28T13:32:30.247Z,1.60
2022-09-28T13:34:59.027Z,2.25
2022-09-28T13:37:26.555Z,2.10
2022-09-28T13:39:59.392Z,1.90
2022-09-28T13:42:42.284Z,1.63
2022-09-28T13:45:12.335Z,1.75
2022-09-28T13:47:52.022Z,2.30
2022-09-28T13:50:50.161Z,2.53
2022-09-28T13:53:33.460Z,2.40
2022-09-28T13:56:21.836Z,1.60
2022-09-28T13:58:54.309Z,2.35
2022-09-28T14:01:28.567Z,2.58
2022-09-28T14:04:14.532Z,2.63
2022-09-28T14:07:11.748Z,2.28
2022-09-28T14:10:16.307Z,2.40
2022-09-28T14:12:43.228Z,2.53
2022-09-28T14:15:28.917Z,2.08
2022-09-28T14:18:24.521Z,1.92
2022-09-28T14:21:03.085Z,1.80
2022-09-28T14:23:48.678Z,1.80
2022-09-28T14:26:44.700Z,2.40
2022-09-28T14:29:27.797Z,2.15
2022-09-28T14:32:10.047Z,2.03
2022-09-28T14:34:41.655Z,2.15
2022-09-28T14:37:41.000Z,2.00
2022-09-28T14:40:37.202Z,2.05
2022-09-28T14:43:25.096Z,2.38
2022-09-28T14:46:12.023Z,2.70
2022-09-28T14:48:50.744Z,2.63
2022-09-28T14:51:26.839Z,3.25
2022-09-28T14:53:55.800Z,2.72
2022-09-28T14:56:22.988Z,3.33
2022-09-28T14:58:58.632Z,3.42
2022-09-28T15:01:26.886Z,2.78
2022-09-28T15:03:56.864Z,3.33
2022-09-28T15:06:25.166Z,3.03
2022-09-28T15:08:52.123Z,3.03
2022-09-28T15:11:24.549Z,3.40
2022-09-28T15:14:05.033Z,3.83
2022-09-28T15:16:35.123Z,4.00
2022-09-28T15:19:25.300Z,4.00
2022-09-28T15:21:52.303Z,3.73
2022-09-28T15:24:34.068Z,2.92
2022-09-28T15:27:03.434Z,3.60
2022-09-28T15:29:33.710Z,3.53
2022-09-28T15:32:00.877Z,4.40
2022-09-28T15:34:48.434Z,5.63
2022-09-28T15:37:18.116Z,7.07
2022-09-28T15:39:48.529Z,8.55
2022-09-28T15:42:17.377Z,7.93
2022-09-28T15:45:01.671Z,7.75
2022-09-28T15:47:33.275Z,6.30
2022-09-28T15:50:04.849Z,4.85
2022-09-28T15:52:43.819Z,5.60
2022-09-28T15:55:32.223Z,4.60
2022-09-28T15:58:06.722Z,4.72
2022-09-28T16:00:34.219Z,4.32
2022-09-28T16:03:03.975Z,6.68
2022-09-28T16:05:43.247Z,6.35
2022-09-28T16:08:38.852Z,7.57
2022-09-28T16:11:18.021Z,6.45
2022-09-28T16:14:06.611Z,6.70
2022-09-28T16:16:42.176Z,5.88
2022-09-28T16:19:23.785Z,6.22
2022-09-28T16:21:56.135Z,6.38
2022-09-28T16:24:33.818Z,5.53
2022-09-28T16:27:22.504Z,4.95
2022-09-28T16:30:10.598Z,5.45
2022-09-28T16:32:48.382Z,5.85
2022-09-28T16:35:21.751Z,5.72
2022-09-28T16:37:56.924Z,6.05
2022-09-28T16:40:24.329Z,5.80
2022-09-28T16:42:54.440Z,7.15
2022-09-28T16:45:24.186Z,8.77
2022-09-28T16:47:53.205Z,8.32
2022-09-28T16:50:21.835Z,8.07
2022-09-28T16:53:18.693Z,7.45
2022-09-28T16:55:48.582Z,7.65
2022-09-28T16:58:15.653Z,8.93
2022-09-28T17:00:43.795Z,8.93
2022-09-28T17:03:21.229Z,8.70
2022-09-28T17:05:48.415Z,9.23
2022-09-28T17:08:17.734Z,9.00
2022-09-28T17:11:14.741Z,9.88
2022-09-28T17:13:44.079Z,8.52
2022-09-28T17:16:37.234Z,9.00
2022-09-28T17:19:22.254Z,9.65
2022-09-28T17:21:50.008Z,10.93
2022-09-28T17:24:18.214Z,12.07
2022-09-28T17:26:47.503Z,12.43
2022-09-28T17:29:15.683Z,11.40
2022-09-28T17:31:47.043Z,13.98
2022-09-28T17:34:16.657Z,16.23
2022-09-28T17:36:45.065Z,15.15
2022-09-28T17:39:17.819Z,15.90
2022-09-28T17:41:45.310Z,16.08
2022-09-28T17:44:16.589Z,15.45
2022-09-28T17:46:47.815Z,13.63
2022-09-28T17:49:15.504Z,13.50
2022-09-28T17:51:42.532Z,13.52
2022-09-28T17:54:09.682Z,12.20
2022-09-28T17:56:37.283Z,11.13
2022-09-28T17:59:06.928Z,10.48
2022-09-28T18:01:38.047Z,11.10
2022-09-28T18:04:07.004Z,10.88
2022-09-28T18:06:34.739Z,10.85
2022-09-28T18:09:05.447Z,10.23
2022-09-28T18:11:33.716Z,10.65
2022-09-28T18:14:00.989Z,10.70
2022-09-28T18:16:29.173Z,13.10
2022-09-28T18:18:56.232Z,16.10
2022-09-28T18:21:23.263Z,15.43
2022-09-28T18:23:50.194Z,12.20
2022-09-28T18:26:19.883Z,15.23
2022-09-28T18:28:47.345Z,14.18
2022-09-28T18:31:15.928Z,15.75
2022-09-28T18:33:43.576Z,14.80
2022-09-28T18:36:10.514Z,17.23
2022-09-28T18:38:38.205Z,21.83
2022-09-28T18:41:10.513Z,24.05
2022-09-28T18:43:37.827Z,24.67
2022-09-28T18:46:09.648Z,28.58
2022-09-28T18:48:37.609Z,26.08
2022-09-28T18:51:09.563Z,26.58
2022-09-28T18:53:37.227Z,21.08
2022-09-28T18:56:12.260Z,26.10
2022-09-28T18:58:40.890Z,29.45
2022-09-28T19:01:29.560Z,29.98
2022-09-28T19:04:02.163Z,30.80
2022-09-28T19:06:30.078Z,46.10
2022-09-28T19:08:57.866Z,33.38
2022-09-28T19:11:25.795Z,31.63
2022-09-28T19:13:54.156Z,30.42
2022-09-28T19:16:27.199Z,30.80
2022-09-28T19:18:55.701Z,38.13
2022-09-28T19:21:22.761Z,36.60
2022-09-28T19:23:51.191Z,25.50
2022-09-28T19:26:21.148Z,27.08
2022-09-28T19:28:48.520Z,27.70
2022-09-28T19:31:15.885Z,26.33
2022-09-28T19:33:45.245Z,16.42
2022-09-28T19:36:14.782Z,16.58
2022-09-28T19:38:41.877Z,16.05
2022-09-28T19:41:14.032Z,18.20
2022-09-28T19:43:44.002Z,14.10
2022-09-28T19:46:12.907Z,25.00
2022-09-28T19:48:42.627Z,22.55
2022-09-28T19:51:09.490Z,17.13
2022-09-28T19:53:36.969Z,19.70
2022-09-28T19:56:08.166Z,20.50
2022-09-28T19:58:36.927Z,19.63
2022-09-28T20:01:07.516Z,24.88
2022-09-28T20:03:35.343Z,18.48
2022-09-28T20:06:02.982Z,18.77
2022-09-28T20:08:33.227Z,21.52
2022-09-28T20:11:00.947Z,21.00
2022-09-28T20:13:33.414Z,21.65
2022-09-28T20:16:12.605Z,16.73
2022-09-28T20:18:43.905Z,17.85
2022-09-28T20:21:17.109Z,23.30
2022-09-28T20:23:45.583Z,21.65
2022-09-28T20:26:13.806Z,19.80
2022-09-28T20:28:41.256Z,20.58
2022-09-28T20:31:12.274Z,21.25
2022-09-28T20:33:39.546Z,20.55
2022-09-28T20:36:08.579Z,18.08
2022-09-28T20:38:37.478Z,20.00
2022-09-28T20:41:04.617Z,20.48
2022-09-28T20:43:31.805Z,16.40
2022-09-28T20:45:59.227Z,20.90
2022-09-28T20:48:27.094Z,18.27
2022-09-28T20:51:10.627Z,22.70
2022-09-28T20:53:39.215Z,19.98
2022-09-28T20:56:13.100Z,20.35
2022-09-28T20:58:41.076Z,19.58
2022-09-28T21:01:17.660Z,19.08
2022-09-28T21:03:49.443Z,19.65
2022-09-28T21:06:22.187Z,20.13
2022-09-28T21:08:49.971Z,25.00
2022-09-28T21:11:19.065Z,26.45
2022-09-28T21:13:46.853Z,22.52
2022-09-28T21:16:15.754Z,23.10
2022-09-28T21:18:42.962Z,21.42
2022-09-28T21:21:13.474Z,27.35
2022-09-28T21:23:40.909Z,24.80
2022-09-28T21:26:19.282Z,27.65
2022-09-28T21:28:46.897Z,24.42
2022-09-28T21:31:14.868Z,29.13
2022-09-28T21:33:41.795Z,28.08
2022-09-28T21:36:09.274Z,33.88
2022-09-28T21:38:36.233Z,36.42
2022-09-28T21:41:03.421Z,42.17
2022-09-28T21:43:31.937Z,39.33
2022-09-28T21:45:59.204Z,36.80
2022-09-28T21:48:27.885Z,34.28
2022-09-28T21:51:07.221Z,33.65
2022-09-28T21:53:36.532Z,35.30
2022-09-28T21:56:06.169Z,35.40
2022-09-28T21:58:34.910Z,34.78
2022-09-28T22:01:17.017Z,43.08
2022-09-28T22:03:45.467Z,35.35
2022-09-28T22:06:12.816Z,36.75
2022-09-28T22:08:40.290Z,31.17
2022-09-28T22:11:10.249Z,27.48
2022-09-28T22:13:44.864Z,27.83
2022-09-28T22:16:13.121Z,25.23
2022-09-28T22:18:40.565Z,20.23
2022-09-28T22:21:15.926Z,20.10
2022-09-28T22:23:42.999Z,20.80
2022-09-28T22:26:14.930Z,18.85
2022-09-28T22:28:52.811Z,16.65
2022-09-28T22:31:22.472Z,21.23
2022-09-28T22:33:50.102Z,21.05
2022-09-28T22:36:17.298Z,20.63
2022-09-28T22:38:45.329Z,17.45
2022-09-28T22:41:12.892Z,17.25
2022-09-28T22:43:39.851Z,14.93
2022-09-28T22:46:12.104Z,16.45
2022-09-28T22:48:39.736Z,17.73
2022-09-28T22:51:07.421Z,18.52
2022-09-28T22:53:35.937Z,16.25
2022-09-28T22:56:05.883Z,19.60
2022-09-28T22:58:33.859Z,15.17
2022-09-28T23:01:15.766Z,19.10
2022-09-28T23:03:43.053Z,19.00
2022-09-28T23:06:11.222Z,22.52
2022-09-28T23:08:38.546Z,21.75
2022-09-28T23:11:06.375Z,16.48
2022-09-28T23:13:38.641Z,22.65
2022-09-28T23:16:07.795Z,18.70
2022-09-28T23:18:36.711Z,21.80
2022-09-28T23:21:06.248Z,22.55
2022-09-28T23:23:33.871Z,18.02
2022-09-28T23:26:17.521Z,17.55
2022-09-28T23:28:45.476Z,18.55
2022-09-28T23:31:17.795Z,18.17
2022-09-28T23:33:45.301Z,19.23
2022-09-28T23:36:12.686Z,18.85
2022-09-28T23:38:39.834Z,18.42
2022-09-28T23:41:07.077Z,17.13
2022-09-28T23:43:34.938Z,15.07
2022-09-28T23:46:02.333Z,18.02
2022-09-28T23:48:29.594Z,16.88
2022-09-28T23:50:56.782Z,17.20
2022-09-28T23:53:23.819Z,13.55
2022-09-28T23:55:50.819Z,14.85
2022-09-28T23:58:17.807Z,15.15
